createdAt,value
2023-03-26T00:14:27.150Z,7.5
2023-03-26T00:24:27.329Z,7.5
2023-03-26T00:34:27.614Z,7.6
2023-03-26T00:54:29.118Z,7.6
2023-03-26T01:14:29.754Z,7.6
2023-03-26T01:24:30.817Z,7.7
2023-03-26T01:34:31.070Z,7.7
2023-03-26T01:44:31.400Z,7.7
2023-03-26T02:44:33.943Z,7.5
2023-03-26T03:04:35.552Z,7.5
2023-03-26T03:24:36.972Z,7.5
2023-03-26T03:34:37.501Z,7.4
2023-03-26T04:04:39.134Z,7.2
2023-03-26T04:14:39.919Z,7.1
2023-03-26T05:04:42.573Z,6.9
2023-03-26T05:24:43.635Z,7
2023-03-26T05:44:44.471Z,7.1
2023-03-26T05:54:44.643Z,7.1
2023-03-26T06:04:45.069Z,7.1
2023-03-26T06:14:46.027Z,7.2
2023-03-26T06:54:47.744Z,7.4
2023-03-26T07:14:48.567Z,7.5
2023-03-26T07:44:50.377Z,7.6
2023-03-26T08:34:52.216Z,7.6
2023-03-26T08:54:54.689Z,7.6
2023-03-26T09:14:54.506Z,7.7
2023-03-26T09:34:55.566Z,7.8
2023-03-26T11:55:02.324Z,7.7
2023-03-26T12:35:04.612Z,7.8
2023-03-26T12:45:05.453Z,8
2023-03-26T13:35:09.105Z,8.4
2023-03-26T14:25:11.484Z,8.1
2023-03-26T15:05:53.506Z,7.4
2023-03-26T15:15:19.953Z,7.3
2023-03-26T15:45:21.468Z,7
2023-03-26T16:15:23.926Z,6.8
2023-03-26T16:35:25.177Z,6.6
2023-03-26T16:55:25.897Z,6.6
2023-03-26T17:15:27.910Z,6.6
2023-03-26T17:25:28.198Z,6.6
2023-03-26T17:35:28.930Z,6.4
2023-03-26T17:45:29.322Z,6.4
2023-03-26T17:55:30.135Z,6.4
2023-03-26T18:05:30.808Z,6.2
2023-03-26T18:25:31.830Z,6.1
2023-03-26T18:55:33.686Z,6
2023-03-26T19:05:34.323Z,5.9
2023-03-26T19:15:34.311Z,5.9
2023-03-26T19:35:34.541Z,5.8
2023-03-26T19:45:35.284Z,5.7
2023-03-26T19:55:35.460Z,5.6
2023-03-26T20:05:36.243Z,5.6
2023-03-26T20:15:36.318Z,5.3
2023-03-26T20:25:37.264Z,5.1
2023-03-26T20:35:37.790Z,5
2023-03-26T20:55:38.178Z,4.6
2023-03-26T21:15:38.940Z,4
2023-03-26T21:25:40.502Z,3.7
2023-03-26T21:35:39.332Z,3.5
2023-03-26T21:55:41.310Z,3.3
2023-03-26T22:05:41.852Z,3.1
2023-03-26T22:15:42.950Z,2.9
2023-03-26T22:45:44.738Z,2.6
2023-03-26T23:05:46.002Z,2.6
2023-03-26T23:15:46.265Z,2.5
2023-03-26T23:35:47.560Z,2.3
2023-03-26T23:45:48.268Z,2.2
2023-03-26T23:55:49.252Z,2.1
